sensor_id;sensor_type;location;lat;lon;timestamp;P1;durP1;ratioP1;P2;durP2;ratioP2
5257;SDS011;2651;51.594;9.928;2022-11-15T00:00:32;7.80;;;4.10;;
5257;SDS011;2651;51.594;9.928;2022-11-15T00:01:33;8.30;;;4.70;;
5257;SDS011;2651;51.594;9.928;2022-11-15T00:02:35;4.82;;;3.80;;
5257;SDS011;2651;51.594;9.928;2022-11-15T00:03:37;4.47;;;3.67;;
5257;SDS011;2651;51.594;9.928;2022-11-15T00:04:38;4.20;;;3.30;;
5257;SDS011;2651;51.594;9.928;2022-11-15T00:05:40;5.55;;;4.20;;
5257;SDS011;2651;51.594;9.928;2022-11-15T00:06:42;4.60;;;3.60;;
5257;SDS011;2651;51.594;9.928;2022-11-15T00:07:44;5.13;;;3.88;;
5257;SDS011;2651;51.594;9.928;2022-11-15T00:08:59;10.13;;;3.80;;
5257;SDS011;2651;51.594;9.928;2022-11-15T00:10:02;6.80;;;3.78;;
5257;SDS011;2651;51.594;9.928;2022-11-15T00:11:04;3.90;;;3.60;;
5257;SDS011;2651;51.594;9.928;2022-11-15T00:12:06;3.90;;;3.60;;
5257;SDS011;2651;51.594;9.928;2022-11-15T00:13:08;8.93;;;3.25;;
5257;SDS011;2651;51.594;9.928;2022-11-15T00:14:12;4.63;;;3.42;;
5257;SDS011;2651;51.594;9.928;2022-11-15T00:15:13;5.95;;;3.42;;
5257;SDS011;2651;51.594;9.928;2022-11-15T00:16:15;5.50;;;3.67;;
5257;SDS011;2651;51.594;9.928;2022-11-15T00:17:17;7.45;;;4.10;;
5257;SDS011;2651;51.594;9.928;2022-11-15T00:18:19;6.05;;;4.15;;
5257;SDS011;2651;51.594;9.928;2022-11-15T00:19:20;5.13;;;3.90;;
5257;SDS011;2651;51.594;9.928;2022-11-15T00:20:22;12.73;;;3.70;;
5257;SDS011;2651;51.594;9.928;2022-11-15T00:21:24;4.43;;;3.30;;
5257;SDS011;2651;51.594;9.928;2022-11-15T00:22:30;9.35;;;4.03;;
5257;SDS011;2651;51.594;9.928;2022-11-15T00:23:33;5.35;;;3.63;;
5257;SDS011;2651;51.594;9.928;2022-11-15T00:24:35;6.15;;;4.10;;
5257;SDS011;2651;51.594;9.928;2022-11-15T00:25:37;6.55;;;3.78;;
5257;SDS011;2651;51.594;9.928;2022-11-15T00:26:38;4.15;;;3.78;;
5257;SDS011;2651;51.594;9.928;2022-11-15T00:27:40;4.43;;;3.45;;
5257;SDS011;2651;51.594;9.928;2022-11-15T00:28:41;3.35;;;3.05;;
5257;SDS011;2651;51.594;9.928;2022-11-15T00:29:43;5.97;;;3.97;;
5257;SDS011;2651;51.594;9.928;2022-11-15T00:30:45;6.20;;;4.03;;
5257;SDS011;2651;51.594;9.928;2022-11-15T00:31:46;8.35;;;3.88;;
5257;SDS011;2651;51.594;9.928;2022-11-15T00:32:48;5.18;;;3.53;;
5257;SDS011;2651;51.594;9.928;2022-11-15T00:33:50;6.72;;;4.10;;
5257;SDS011;2651;51.594;9.928;2022-11-15T00:34:52;7.15;;;4.28;;
5257;SDS011;2651;51.594;9.928;2022-11-15T00:35:53;5.88;;;3.65;;
5257;SDS011;2651;51.594;9.928;2022-11-15T00:37:12;3.47;;;3.17;;
5257;SDS011;2651;51.594;9.928;2022-11-15T00:38:14;8.65;;;4.00;;
5257;SDS011;2651;51.594;9.928;2022-11-15T00:39:16;5.78;;;4.03;;
5257;SDS011;2651;51.594;9.928;2022-11-15T00:40:17;7.05;;;3.50;;
5257;SDS011;2651;51.594;9.928;2022-11-15T00:41:19;5.97;;;3.78;;
5257;SDS011;2651;51.594;9.928;2022-11-15T00:42:20;4.20;;;3.83;;
5257;SDS011;2651;51.594;9.928;2022-11-15T00:43:22;9.57;;;3.80;;
5257;SDS011;2651;51.594;9.928;2022-11-15T00:44:24;6.15;;;4.22;;
5257;SDS011;2651;51.594;9.928;2022-11-15T00:45:26;6.22;;;3.95;;
5257;SDS011;2651;51.594;9.928;2022-11-15T00:46:27;7.15;;;3.85;;
5257;SDS011;2651;51.594;9.928;2022-11-15T00:47:29;5.35;;;4.20;;
5257;SDS011;2651;51.594;9.928;2022-11-15T00:48:31;6.22;;;5.00;;
5257;SDS011;2651;51.594;9.928;2022-11-15T00:49:33;12.35;;;3.97;;
5257;SDS011;2651;51.594;9.928;2022-11-15T00:50:35;5.05;;;4.55;;
5257;SDS011;2651;51.594;9.928;2022-11-15T00:51:36;6.93;;;4.00;;
5257;SDS011;2651;51.594;9.928;2022-11-15T00:52:38;6.55;;;4.18;;
5257;SDS011;2651;51.594;9.928;2022-11-15T00:53:40;5.53;;;4.05;;
5257;SDS011;2651;51.594;9.928;2022-11-15T00:54:41;5.75;;;4.25;;
5257;SDS011;2651;51.594;9.928;2022-11-15T00:55:43;5.85;;;3.60;;
5257;SDS011;2651;51.594;9.928;2022-11-15T00:56:45;4.35;;;3.65;;
5257;SDS011;2651;51.594;9.928;2022-11-15T00:57:46;7.38;;;3.85;;
5257;SDS011;2651;51.594;9.928;2022-11-15T00:58:48;5.60;;;3.63;;
5257;SDS011;2651;51.594;9.928;2022-11-15T00:59:49;4.93;;;4.20;;
5257;SDS011;2651;51.594;9.928;2022-11-15T01:00:51;5.57;;;3.25;;
5257;SDS011;2651;51.594;9.928;2022-11-15T01:01:53;4.82;;;4.30;;
5257;SDS011;2651;51.594;9.928;2022-11-15T01:02:54;4.28;;;3.88;;
5257;SDS011;2651;51.594;9.928;2022-11-15T01:03:56;6.97;;;3.85;;
5257;SDS011;2651;51.594;9.928;2022-11-15T01:05:01;7.10;;;4.25;;
5257;SDS011;2651;51.594;9.928;2022-11-15T01:06:04;9.35;;;4.25;;
5257;SDS011;2651;51.594;9.928;2022-11-15T01:07:06;5.30;;;3.70;;
5257;SDS011;2651;51.594;9.928;2022-11-15T01:08:14;4.93;;;3.95;;
5257;SDS011;2651;51.594;9.928;2022-11-15T01:09:17;5.32;;;3.85;;
5257;SDS011;2651;51.594;9.928;2022-11-15T01:10:18;3.78;;;3.47;;
5257;SDS011;2651;51.594;9.928;2022-11-15T01:11:20;5.18;;;3.70;;
5257;SDS011;2651;51.594;9.928;2022-11-15T01:12:22;4.82;;;3.70;;
5257;SDS011;2651;51.594;9.928;2022-11-15T01:13:23;4.28;;;3.88;;
5257;SDS011;2651;51.594;9.928;2022-11-15T01:14:25;6.63;;;4.10;;
5257;SDS011;2651;51.594;9.928;2022-11-15T01:15:27;6.35;;;3.80;;
5257;SDS011;2651;51.594;9.928;2022-11-15T01:16:28;5.70;;;3.78;;
5257;SDS011;2651;51.594;9.928;2022-11-15T01:17:30;6.53;;;4.20;;
5257;SDS011;2651;51.594;9.928;2022-11-15T01:18:32;4.30;;;3.55;;
5257;SDS011;2651;51.594;9.928;2022-11-15T01:19:34;9.93;;;3.97;;
5257;SDS011;2651;51.594;9.928;2022-11-15T01:20:39;4.45;;;4.05;;
5257;SDS011;2651;51.594;9.928;2022-11-15T01:21:42;4.00;;;3.08;;
5257;SDS011;2651;51.594;9.928;2022-11-15T01:22:44;10.02;;;3.78;;
5257;SDS011;2651;51.594;9.928;2022-11-15T01:23:46;6.07;;;3.70;;
5257;SDS011;2651;51.594;9.928;2022-11-15T01:24:49;4.30;;;3.40;;
5257;SDS011;2651;51.594;9.928;2022-11-15T01:25:51;5.75;;;4.10;;
5257;SDS011;2651;51.594;9.928;2022-11-15T01:26:53;5.65;;;3.90;;
5257;SDS011;2651;51.594;9.928;2022-11-15T01:27:54;3.83;;;3.50;;
5257;SDS011;2651;51.594;9.928;2022-11-15T01:28:56;3.75;;;3.45;;
5257;SDS011;2651;51.594;9.928;2022-11-15T01:29:58;3.80;;;3.50;;
5257;SDS011;2651;51.594;9.928;2022-11-15T01:31:00;5.68;;;4.03;;
5257;SDS011;2651;51.594;9.928;2022-11-15T01:32:03;3.92;;;3.63;;
5257;SDS011;2651;51.594;9.928;2022-11-15T01:33:05;3.45;;;3.25;;
5257;SDS011;2651;51.594;9.928;2022-11-15T01:34:06;4.32;;;3.55;;
5257;SDS011;2651;51.594;9.928;2022-11-15T01:35:08;5.72;;;3.90;;
5257;SDS011;2651;51.594;9.928;2022-11-15T01:36:11;5.70;;;3.70;;
5257;SDS011;2651;51.594;9.928;2022-11-15T01:37:18;4.75;;;3.60;;
5257;SDS011;2651;51.594;9.928;2022-11-15T01:38:19;7.55;;;4.15;;
5257;SDS011;2651;51.594;9.928;2022-11-15T01:39:21;7.57;;;3.65;;
5257;SDS011;2651;51.594;9.928;2022-11-15T01:40:23;4.93;;;3.55;;
5257;SDS011;2651;51.594;9.928;2022-11-15T01:41:29;4.88;;;4.05;;
5257;SDS011;2651;51.594;9.928;2022-11-15T01:42:33;6.28;;;3.80;;
5257;SDS011;2651;51.594;9.928;2022-11-15T01:43:35;9.98;;;3.65;;
5257;SDS011;2651;51.594;9.928;2022-11-15T01:44:39;12.73;;;3.40;;
5257;SDS011;2651;51.594;9.928;2022-11-15T01:45:42;5.90;;;3.40;;
5257;SDS011;2651;51.594;9.928;2022-11-15T01:46:46;3.92;;;3.55;;
5257;SDS011;2651;51.594;9.928;2022-11-15T01:47:50;4.55;;;3.08;;
5257;SDS011;2651;51.594;9.928;2022-11-15T01:48:55;5.85;;;3.65;;
5257;SDS011;2651;51.594;9.928;2022-11-15T01:50:00;3.85;;;3.55;;
5257;SDS011;2651;51.594;9.928;2022-11-15T01:51:08;4.63;;;3.72;;
5257;SDS011;2651;51.594;9.928;2022-11-15T01:52:13;5.28;;;3.40;;
5257;SDS011;2651;51.594;9.928;2022-11-15T01:53:18;6.28;;;3.80;;
5257;SDS011;2651;51.594;9.928;2022-11-15T01:54:22;3.92;;;3.30;;
5257;SDS011;2651;51.594;9.928;2022-11-15T01:55:25;6.93;;;3.55;;
5257;SDS011;2651;51.594;9.928;2022-11-15T01:56:30;8.07;;;3.50;;
5257;SDS011;2651;51.594;9.928;2022-11-15T01:57:34;3.85;;;3.38;;
5257;SDS011;2651;51.594;9.928;2022-11-15T01:58:36;6.03;;;3.80;;
5257;SDS011;2651;51.594;9.928;2022-11-15T01:59:40;6.15;;;3.70;;
5257;SDS011;2651;51.594;9.928;2022-11-15T02:00:44;8.25;;;3.40;;
5257;SDS011;2651;51.594;9.928;2022-11-15T02:01:46;4.80;;;3.58;;
5257;SDS011;2651;51.594;9.928;2022-11-15T02:02:48;6.88;;;4.00;;
5257;SDS011;2651;51.594;9.928;2022-11-15T02:03:59;9.43;;;3.83;;
5257;SDS011;2651;51.594;9.928;2022-11-15T02:05:09;4.55;;;3.45;;
5257;SDS011;2651;51.594;9.928;2022-11-15T02:06:11;3.70;;;3.20;;
5257;SDS011;2651;51.594;9.928;2022-11-15T02:07:14;4.50;;;3.15;;
5257;SDS011;2651;51.594;9.928;2022-11-15T02:08:18;5.50;;;3.67;;
5257;SDS011;2651;51.594;9.928;2022-11-15T02:09:23;3.20;;;3.00;;
5257;SDS011;2651;51.594;9.928;2022-11-15T02:10:24;9.23;;;3.80;;
5257;SDS011;2651;51.594;9.928;2022-11-15T02:11:26;3.90;;;3.35;;
5257;SDS011;2651;51.594;9.928;2022-11-15T02:12:28;8.32;;;3.30;;
5257;SDS011;2651;51.594;9.928;2022-11-15T02:13:32;5.05;;;3.22;;
5257;SDS011;2651;51.594;9.928;2022-11-15T02:14:34;4.40;;;3.47;;
5257;SDS011;2651;51.594;9.928;2022-11-15T02:15:40;6.90;;;4.00;;
5257;SDS011;2651;51.594;9.928;2022-11-15T02:17:12;3.85;;;3.17;;
5257;SDS011;2651;51.594;9.928;2022-11-15T02:18:28;11.43;;;3.45;;
5257;SDS011;2651;51.594;9.928;2022-11-15T02:19:49;5.30;;;4.00;;
5257;SDS011;2651;51.594;9.928;2022-11-15T02:25:36;6.07;;;3.00;;
5257;SDS011;2651;51.594;9.928;2022-11-15T02:34:28;7.10;;;3.55;;
5257;SDS011;2651;51.594;9.928;2022-11-15T02:36:10;3.75;;;2.80;;
5257;SDS011;2651;51.594;9.928;2022-11-15T02:38:43;4.47;;;3.45;;
5257;SDS011;2651;51.594;9.928;2022-11-15T02:39:58;4.30;;;3.50;;
5257;SDS011;2651;51.594;9.928;2022-11-15T02:41:30;8.88;;;3.75;;
5257;SDS011;2651;51.594;9.928;2022-11-15T02:42:55;6.78;;;3.33;;
5257;SDS011;2651;51.594;9.928;2022-11-15T02:44:33;4.68;;;2.90;;
5257;SDS011;2651;51.594;9.928;2022-11-15T02:45:40;4.22;;;3.15;;
5257;SDS011;2651;51.594;9.928;2022-11-15T02:46:50;6.68;;;3.13;;
5257;SDS011;2651;51.594;9.928;2022-11-15T02:48:13;3.75;;;2.80;;
5257;SDS011;2651;51.594;9.928;2022-11-15T02:49:17;6.90;;;3.53;;
5257;SDS011;2651;51.594;9.928;2022-11-15T02:50:20;4.75;;;3.50;;
5257;SDS011;2651;51.594;9.928;2022-11-15T02:51:25;7.25;;;3.40;;
5257;SDS011;2651;51.594;9.928;2022-11-15T02:52:27;5.88;;;3.30;;
5257;SDS011;2651;51.594;9.928;2022-11-15T02:53:28;4.85;;;3.40;;
5257;SDS011;2651;51.594;9.928;2022-11-15T02:54:31;4.10;;;2.70;;
5257;SDS011;2651;51.594;9.928;2022-11-15T02:55:35;6.25;;;3.15;;
5257;SDS011;2651;51.594;9.928;2022-11-15T02:56:43;3.20;;;3.00;;
5257;SDS011;2651;51.594;9.928;2022-11-15T02:57:52;3.60;;;3.20;;
5257;SDS011;2651;51.594;9.928;2022-11-15T02:59:23;5.03;;;3.05;;
5257;SDS011;2651;51.594;9.928;2022-11-15T03:00:47;5.22;;;2.90;;
5257;SDS011;2651;51.594;9.928;2022-11-15T03:03:29;4.13;;;3.45;;
5257;SDS011;2651;51.594;9.928;2022-11-15T03:05:46;3.28;;;3.05;;
5257;SDS011;2651;51.594;9.928;2022-11-15T03:06:30;7.43;;;3.80;;
5257;SDS011;2651;51.594;9.928;2022-11-15T03:09:10;4.45;;;3.10;;
5257;SDS011;2651;51.594;9.928;2022-11-15T03:11:25;5.05;;;3.00;;
5257;SDS011;2651;51.594;9.928;2022-11-15T03:13:16;4.07;;;3.28;;
5257;SDS011;2651;51.594;9.928;2022-11-15T03:13:58;3.17;;;2.97;;
5257;SDS011;2651;51.594;9.928;2022-11-15T03:15:18;3.17;;;2.90;;
5257;SDS011;2651;51.594;9.928;2022-11-15T03:16:26;9.80;;;3.10;;
5257;SDS011;2651;51.594;9.928;2022-11-15T03:17:36;3.15;;;2.95;;
5257;SDS011;2651;51.594;9.928;2022-11-15T03:18:43;3.45;;;2.90;;
5257;SDS011;2651;51.594;9.928;2022-11-15T03:19:51;5.43;;;3.15;;
5257;SDS011;2651;51.594;9.928;2022-11-15T03:20:55;3.72;;;2.55;;
5257;SDS011;2651;51.594;9.928;2022-11-15T03:22:01;6.57;;;3.30;;
5257;SDS011;2651;51.594;9.928;2022-11-15T03:23:08;3.80;;;3.42;;
5257;SDS011;2651;51.594;9.928;2022-11-15T03:24:11;8.95;;;3.80;;
5257;SDS011;2651;51.594;9.928;2022-11-15T03:25:19;3.38;;;3.08;;
5257;SDS011;2651;51.594;9.928;2022-11-15T03:26:23;5.13;;;3.30;;
5257;SDS011;2651;51.594;9.928;2022-11-15T03:27:28;5.32;;;3.42;;
5257;SDS011;2651;51.594;9.928;2022-11-15T03:28:38;4.05;;;2.95;;
5257;SDS011;2651;51.594;9.928;2022-11-15T03:29:50;3.70;;;2.95;;
5257;SDS011;2651;51.594;9.928;2022-11-15T03:30:56;3.47;;;3.17;;
5257;SDS011;2651;51.594;9.928;2022-11-15T03:32:21;4.55;;;2.92;;
5257;SDS011;2651;51.594;9.928;2022-11-15T03:33:24;3.55;;;3.30;;
5257;SDS011;2651;51.594;9.928;2022-11-15T03:34:32;3.55;;;3.25;;
5257;SDS011;2651;51.594;9.928;2022-11-15T03:35:58;3.90;;;3.15;;
5257;SDS011;2651;51.594;9.928;2022-11-15T03:37:00;4.45;;;3.53;;
5257;SDS011;2651;51.594;9.928;2022-11-15T03:39:25;14.43;;;3.45;;
5257;SDS011;2651;51.594;9.928;2022-11-15T03:40:30;4.60;;;3.25;;
5257;SDS011;2651;51.594;9.928;2022-11-15T03:41:40;4.93;;;3.15;;
5257;SDS011;2651;51.594;9.928;2022-11-15T03:42:52;4.28;;;2.80;;
5257;SDS011;2651;51.594;9.928;2022-11-15T03:45:40;4.25;;;3.20;;
5257;SDS011;2651;51.594;9.928;2022-11-15T03:46:57;5.18;;;3.50;;
5257;SDS011;2651;51.594;9.928;2022-11-15T03:48:22;7.07;;;3.20;;
5257;SDS011;2651;51.594;9.928;2022-11-15T03:49:28;6.40;;;2.88;;
5257;SDS011;2651;51.594;9.928;2022-11-15T03:50:35;3.45;;;2.90;;
5257;SDS011;2651;51.594;9.928;2022-11-15T03:51:37;6.45;;;3.30;;
5257;SDS011;2651;51.594;9.928;2022-11-15T03:52:39;4.97;;;3.40;;
5257;SDS011;2651;51.594;9.928;2022-11-15T03:53:43;5.70;;;3.30;;
5257;SDS011;2651;51.594;9.928;2022-11-15T03:54:51;4.50;;;3.20;;
5257;SDS011;2651;51.594;9.928;2022-11-15T03:55:55;4.38;;;3.20;;
5257;SDS011;2651;51.594;9.928;2022-11-15T03:56:56;5.40;;;3.45;;
5257;SDS011;2651;51.594;9.928;2022-11-15T03:57:59;3.58;;;3.17;;
5257;SDS011;2651;51.594;9.928;2022-11-15T03:59:01;4.32;;;2.88;;
5257;SDS011;2651;51.594;9.928;2022-11-15T04:00:03;4.18;;;3.78;;
5257;SDS011;2651;51.594;9.928;2022-11-15T04:01:06;4.05;;;3.00;;
5257;SDS011;2651;51.594;9.928;2022-11-15T04:02:08;3.90;;;2.90;;
5257;SDS011;2651;51.594;9.928;2022-11-15T04:03:09;4.63;;;2.58;;
5257;SDS011;2651;51.594;9.928;2022-11-15T04:04:11;3.65;;;2.95;;
5257;SDS011;2651;51.594;9.928;2022-11-15T04:05:13;3.95;;;3.60;;
5257;SDS011;2651;51.594;9.928;2022-11-15T04:06:14;3.60;;;3.40;;
5257;SDS011;2651;51.594;9.928;2022-11-15T04:07:16;3.78;;;3.10;;
5257;SDS011;2651;51.594;9.928;2022-11-15T04:08:18;4.03;;;3.53;;
5257;SDS011;2651;51.594;9.928;2022-11-15T04:09:20;5.20;;;3.83;;
5257;SDS011;2651;51.594;9.928;2022-11-15T04:10:21;4.55;;;3.60;;
5257;SDS011;2651;51.594;9.928;2022-11-15T04:11:23;3.95;;;3.20;;
5257;SDS011;2651;51.594;9.928;2022-11-15T04:12:24;6.55;;;4.50;;
5257;SDS011;2651;51.594;9.928;2022-11-15T04:13:32;4.07;;;3.67;;
5257;SDS011;2651;51.594;9.928;2022-11-15T04:14:34;7.80;;;4.00;;
5257;SDS011;2651;51.594;9.928;2022-11-15T04:15:36;6.15;;;4.00;;
5257;SDS011;2651;51.594;9.928;2022-11-15T04:16:38;4.45;;;4.00;;
5257;SDS011;2651;51.594;9.928;2022-11-15T04:17:48;4.80;;;4.35;;
5257;SDS011;2651;51.594;9.928;2022-11-15T04:18:54;4.05;;;3.65;;
5257;SDS011;2651;51.594;9.928;2022-11-15T04:20:16;5.57;;;3.80;;
5257;SDS011;2651;51.594;9.928;2022-11-15T04:21:45;6.25;;;3.50;;
5257;SDS011;2651;51.594;9.928;2022-11-15T04:23:10;4.10;;;3.47;;
5257;SDS011;2651;51.594;9.928;2022-11-15T04:24:33;7.97;;;3.92;;
5257;SDS011;2651;51.594;9.928;2022-11-15T04:25:34;4.63;;;4.00;;
5257;SDS011;2651;51.594;9.928;2022-11-15T04:26:36;7.07;;;3.75;;
5257;SDS011;2651;51.594;9.928;2022-11-15T04:27:37;7.72;;;4.03;;
5257;SDS011;2651;51.594;9.928;2022-11-15T04:28:40;3.63;;;3.30;;
5257;SDS011;2651;51.594;9.928;2022-11-15T04:30:01;5.90;;;3.92;;
5257;SDS011;2651;51.594;9.928;2022-11-15T04:31:03;4.80;;;3.75;;
5257;SDS011;2651;51.594;9.928;2022-11-15T04:32:05;8.32;;;3.92;;
5257;SDS011;2651;51.594;9.928;2022-11-15T04:33:07;7.60;;;4.38;;
5257;SDS011;2651;51.594;9.928;2022-11-15T04:34:09;4.57;;;3.58;;
5257;SDS011;2651;51.594;9.928;2022-11-15T04:35:11;7.10;;;4.43;;
5257;SDS011;2651;51.594;9.928;2022-11-15T04:36:12;7.28;;;3.95;;
5257;SDS011;2651;51.594;9.928;2022-11-15T04:37:33;3.25;;;2.95;;
5257;SDS011;2651;51.594;9.928;2022-11-15T04:38:35;3.80;;;3.50;;
5257;SDS011;2651;51.594;9.928;2022-11-15T04:39:37;4.50;;;3.47;;
5257;SDS011;2651;51.594;9.928;2022-11-15T04:40:39;10.40;;;3.30;;
5257;SDS011;2651;51.594;9.928;2022-11-15T04:41:40;7.95;;;3.70;;
5257;SDS011;2651;51.594;9.928;2022-11-15T04:42:42;4.00;;;3.58;;
5257;SDS011;2651;51.594;9.928;2022-11-15T04:43:44;5.20;;;3.70;;
5257;SDS011;2651;51.594;9.928;2022-11-15T04:44:45;8.65;;;4.20;;
5257;SDS011;2651;51.594;9.928;2022-11-15T04:45:47;6.13;;;3.72;;
5257;SDS011;2651;51.594;9.928;2022-11-15T04:46:49;11.02;;;3.70;;
5257;SDS011;2651;51.594;9.928;2022-11-15T04:47:50;5.72;;;3.60;;
5257;SDS011;2651;51.594;9.928;2022-11-15T04:48:52;4.90;;;3.65;;
5257;SDS011;2651;51.594;9.928;2022-11-15T04:49:59;5.35;;;3.88;;
5257;SDS011;2651;51.594;9.928;2022-11-15T04:51:00;7.90;;;4.10;;
5257;SDS011;2651;51.594;9.928;2022-11-15T04:52:02;6.15;;;4.43;;
5257;SDS011;2651;51.594;9.928;2022-11-15T04:53:04;11.57;;;6.38;;
5257;SDS011;2651;51.594;9.928;2022-11-15T04:54:05;18.80;;;9.35;;
5257;SDS011;2651;51.594;9.928;2022-11-15T04:55:08;7.05;;;5.70;;
5257;SDS011;2651;51.594;9.928;2022-11-15T04:56:11;5.22;;;4.72;;
5257;SDS011;2651;51.594;9.928;2022-11-15T04:57:13;5.15;;;3.80;;
5257;SDS011;2651;51.594;9.928;2022-11-15T04:58:15;6.63;;;4.47;;
5257;SDS011;2651;51.594;9.928;2022-11-15T04:59:17;8.45;;;4.43;;
5257;SDS011;2651;51.594;9.928;2022-11-15T05:00:18;5.60;;;4.70;;
5257;SDS011;2651;51.594;9.928;2022-11-15T05:01:20;5.90;;;4.53;;
5257;SDS011;2651;51.594;9.928;2022-11-15T05:02:22;7.57;;;4.40;;
5257;SDS011;2651;51.594;9.928;2022-11-15T05:03:23;3.90;;;3.60;;
5257;SDS011;2651;51.594;9.928;2022-11-15T05:04:44;5.65;;;3.88;;
5257;SDS011;2651;51.594;9.928;2022-11-15T05:05:45;5.10;;;4.22;;
5257;SDS011;2651;51.594;9.928;2022-11-15T05:06:48;6.05;;;4.50;;
5257;SDS011;2651;51.594;9.928;2022-11-15T05:07:51;7.00;;;4.20;;
5257;SDS011;2651;51.594;9.928;2022-11-15T05:08:53;6.53;;;4.40;;
5257;SDS011;2651;51.594;9.928;2022-11-15T05:09:54;5.30;;;3.97;;
5257;SDS011;2651;51.594;9.928;2022-11-15T05:10:56;5.00;;;4.53;;
5257;SDS011;2651;51.594;9.928;2022-11-15T05:11:58;4.13;;;3.70;;
5257;SDS011;2651;51.594;9.928;2022-11-15T05:12:59;5.95;;;3.78;;
5257;SDS011;2651;51.594;9.928;2022-11-15T05:14:01;6.07;;;4.28;;
5257;SDS011;2651;51.594;9.928;2022-11-15T05:15:03;5.43;;;3.92;;
5257;SDS011;2651;51.594;9.928;2022-11-15T05:16:05;9.73;;;4.40;;
5257;SDS011;2651;51.594;9.928;2022-11-15T05:17:06;5.78;;;4.32;;
5257;SDS011;2651;51.594;9.928;2022-11-15T05:18:08;4.55;;;4.05;;
5257;SDS011;2651;51.594;9.928;2022-11-15T05:19:10;5.57;;;3.92;;
5257;SDS011;2651;51.594;9.928;2022-11-15T05:20:12;7.15;;;4.55;;
5257;SDS011;2651;51.594;9.928;2022-11-15T05:21:14;4.78;;;4.38;;
5257;SDS011;2651;51.594;9.928;2022-11-15T05:22:16;5.63;;;4.53;;
5257;SDS011;2651;51.594;9.928;2022-11-15T05:23:18;5.18;;;4.55;;
5257;SDS011;2651;51.594;9.928;2022-11-15T05:24:19;7.10;;;4.32;;
5257;SDS011;2651;51.594;9.928;2022-11-15T05:25:21;4.13;;;3.63;;
5257;SDS011;2651;51.594;9.928;2022-11-15T05:26:24;4.70;;;4.20;;
5257;SDS011;2651;51.594;9.928;2022-11-15T05:27:25;5.07;;;4.20;;
5257;SDS011;2651;51.594;9.928;2022-11-15T05:28:27;8.50;;;4.28;;
5257;SDS011;2651;51.594;9.928;2022-11-15T05:29:28;6.40;;;4.10;;
5257;SDS011;2651;51.594;9.928;2022-11-15T05:30:30;4.70;;;4.30;;
5257;SDS011;2651;51.594;9.928;2022-11-15T05:31:32;10.65;;;4.18;;
5257;SDS011;2651;51.594;9.928;2022-11-15T05:32:34;7.30;;;4.60;;
5257;SDS011;2651;51.594;9.928;2022-11-15T05:33:35;9.73;;;4.95;;
5257;SDS011;2651;51.594;9.928;2022-11-15T05:34:39;7.78;;;4.50;;
5257;SDS011;2651;51.594;9.928;2022-11-15T05:35:42;6.57;;;4.55;;
5257;SDS011;2651;51.594;9.928;2022-11-15T05:36:58;4.75;;;4.28;;
5257;SDS011;2651;51.594;9.928;2022-11-15T05:38:00;7.65;;;4.43;;
5257;SDS011;2651;51.594;9.928;2022-11-15T05:39:02;4.95;;;4.30;;
5257;SDS011;2651;51.594;9.928;2022-11-15T05:40:06;8.05;;;4.57;;
5257;SDS011;2651;51.594;9.928;2022-11-15T05:41:08;10.60;;;4.80;;
5257;SDS011;2651;51.594;9.928;2022-11-15T05:42:12;14.15;;;4.85;;
5257;SDS011;2651;51.594;9.928;2022-11-15T05:43:16;7.35;;;4.90;;
5257;SDS011;2651;51.594;9.928;2022-11-15T05:44:18;15.45;;;6.05;;
5257;SDS011;2651;51.594;9.928;2022-11-15T05:45:22;5.20;;;4.65;;
5257;SDS011;2651;51.594;9.928;2022-11-15T05:46:27;5.38;;;4.85;;
5257;SDS011;2651;51.594;9.928;2022-11-15T05:47:30;19.55;;;5.10;;
5257;SDS011;2651;51.594;9.928;2022-11-15T05:48:34;8.95;;;4.85;;
5257;SDS011;2651;51.594;9.928;2022-11-15T05:49:38;6.90;;;5.22;;
5257;SDS011;2651;51.594;9.928;2022-11-15T05:50:43;9.20;;;5.15;;
5257;SDS011;2651;51.594;9.928;2022-11-15T05:51:47;5.63;;;4.72;;
5257;SDS011;2651;51.594;9.928;2022-11-15T05:52:50;7.93;;;5.13;;
5257;SDS011;2651;51.594;9.928;2022-11-15T05:53:52;8.20;;;5.05;;
5257;SDS011;2651;51.594;9.928;2022-11-15T05:54:56;7.90;;;5.60;;
5257;SDS011;2651;51.594;9.928;2022-11-15T05:55:58;5.63;;;4.60;;
5257;SDS011;2651;51.594;9.928;2022-11-15T05:57:00;6.05;;;4.88;;
5257;SDS011;2651;51.594;9.928;2022-11-15T05:58:02;5.53;;;4.65;;
5257;SDS011;2651;51.594;9.928;2022-11-15T05:59:04;5.82;;;5.07;;
5257;SDS011;2651;51.594;9.928;2022-11-15T06:00:07;9.10;;;5.18;;
5257;SDS011;2651;51.594;9.928;2022-11-15T06:01:10;4.70;;;4.30;;
5257;SDS011;2651;51.594;9.928;2022-11-15T06:02:12;4.70;;;4.30;;
5257;SDS011;2651;51.594;9.928;2022-11-15T06:03:13;6.20;;;4.50;;
5257;SDS011;2651;51.594;9.928;2022-11-15T06:04:15;7.43;;;4.75;;
5257;SDS011;2651;51.594;9.928;2022-11-15T06:05:17;7.53;;;4.72;;
5257;SDS011;2651;51.594;9.928;2022-11-15T06:06:18;7.10;;;4.53;;
5257;SDS011;2651;51.594;9.928;2022-11-15T06:07:20;5.50;;;4.18;;
5257;SDS011;2651;51.594;9.928;2022-11-15T06:08:22;11.55;;;4.72;;
5257;SDS011;2651;51.594;9.928;2022-11-15T06:09:24;6.57;;;4.10;;
5257;SDS011;2651;51.594;9.928;2022-11-15T06:10:25;7.85;;;4.55;;
5257;SDS011;2651;51.594;9.928;2022-11-15T06:11:27;6.85;;;4.45;;
5257;SDS011;2651;51.594;9.928;2022-11-15T06:12:29;4.55;;;4.10;;
5257;SDS011;2651;51.594;9.928;2022-11-15T06:13:30;10.52;;;4.68;;
5257;SDS011;2651;51.594;9.928;2022-11-15T06:14:33;10.98;;;4.90;;
5257;SDS011;2651;51.594;9.928;2022-11-15T06:15:35;5.55;;;4.30;;
5257;SDS011;2651;51.594;9.928;2022-11-15T06:16:36;5.50;;;3.65;;
5257;SDS011;2651;51.594;9.928;2022-11-15T06:17:38;5.45;;;4.45;;
5257;SDS011;2651;51.594;9.928;2022-11-15T06:18:40;4.75;;;4.35;;
5257;SDS011;2651;51.594;9.928;2022-11-15T06:19:42;6.93;;;4.75;;
5257;SDS011;2651;51.594;9.928;2022-11-15T06:20:43;7.28;;;4.75;;
5257;SDS011;2651;51.594;9.928;2022-11-15T06:21:45;5.88;;;4.47;;
5257;SDS011;2651;51.594;9.928;2022-11-15T06:22:47;4.47;;;4.07;;
5257;SDS011;2651;51.594;9.928;2022-11-15T06:23:48;5.13;;;4.63;;
5257;SDS011;2651;51.594;9.928;2022-11-15T06:24:50;4.80;;;4.40;;
5257;SDS011;2651;51.594;9.928;2022-11-15T06:25:52;4.30;;;3.90;;
5257;SDS011;2651;51.594;9.928;2022-11-15T06:26:53;4.78;;;3.83;;
5257;SDS011;2651;51.594;9.928;2022-11-15T06:27:55;6.45;;;4.47;;
5257;SDS011;2651;51.594;9.928;2022-11-15T06:28:59;4.88;;;4.38;;
5257;SDS011;2651;51.594;9.928;2022-11-15T06:30:00;6.18;;;4.10;;
5257;SDS011;2651;51.594;9.928;2022-11-15T06:31:06;5.63;;;3.97;;
5257;SDS011;2651;51.594;9.928;2022-11-15T06:32:09;4.55;;;3.97;;
5257;SDS011;2651;51.594;9.928;2022-11-15T06:33:10;5.38;;;4.57;;
5257;SDS011;2651;51.594;9.928;2022-11-15T06:34:12;8.48;;;4.82;;
5257;SDS011;2651;51.594;9.928;2022-11-15T06:35:14;7.88;;;4.43;;
5257;SDS011;2651;51.594;9.928;2022-11-15T06:36:16;6.13;;;4.50;;
5257;SDS011;2651;51.594;9.928;2022-11-15T06:37:18;7.80;;;4.30;;
5257;SDS011;2651;51.594;9.928;2022-11-15T06:38:20;4.75;;;4.22;;
5257;SDS011;2651;51.594;9.928;2022-11-15T06:39:21;5.63;;;4.00;;
5257;SDS011;2651;51.594;9.928;2022-11-15T06:40:23;7.07;;;4.53;;
5257;SDS011;2651;51.594;9.928;2022-11-15T06:41:25;6.97;;;4.38;;
5257;SDS011;2651;51.594;9.928;2022-11-15T06:42:26;9.75;;;5.07;;
5257;SDS011;2651;51.594;9.928;2022-11-15T06:43:28;10.27;;;4.60;;
5257;SDS011;2651;51.594;9.928;2022-11-15T06:44:30;4.18;;;3.83;;
5257;SDS011;2651;51.594;9.928;2022-11-15T06:45:32;12.00;;;6.05;;
5257;SDS011;2651;51.594;9.928;2022-11-15T06:46:33;6.95;;;4.53;;
5257;SDS011;2651;51.594;9.928;2022-11-15T06:47:35;5.20;;;4.07;;
5257;SDS011;2651;51.594;9.928;2022-11-15T06:48:37;5.22;;;4.38;;
5257;SDS011;2651;51.594;9.928;2022-11-15T06:49:38;6.18;;;4.90;;
5257;SDS011;2651;51.594;9.928;2022-11-15T06:50:40;7.60;;;4.40;;
5257;SDS011;2651;51.594;9.928;2022-11-15T06:51:42;9.40;;;4.55;;
5257;SDS011;2651;51.594;9.928;2022-11-15T06:52:44;4.78;;;4.30;;
5257;SDS011;2651;51.594;9.928;2022-11-15T06:53:45;11.05;;;4.13;;
5257;SDS011;2651;51.594;9.928;2022-11-15T06:54:47;7.38;;;4.25;;
5257;SDS011;2651;51.594;9.928;2022-11-15T06:55:49;6.70;;;5.10;;
5257;SDS011;2651;51.594;9.928;2022-11-15T06:56:55;7.15;;;4.22;;
5257;SDS011;2651;51.594;9.928;2022-11-15T06:57:57;11.02;;;5.15;;
5257;SDS011;2651;51.594;9.928;2022-11-15T06:58:59;5.00;;;4.43;;
5257;SDS011;2651;51.594;9.928;2022-11-15T07:00:01;7.18;;;3.90;;
5257;SDS011;2651;51.594;9.928;2022-11-15T07:01:05;6.63;;;4.75;;
5257;SDS011;2651;51.594;9.928;2022-11-15T07:02:12;11.55;;;4.50;;